createdAt,value
2023-02-03T00:01:02.660Z,4
2023-02-03T00:07:22.634Z,4
2023-02-03T00:13:45.615Z,5.2
2023-02-03T00:20:05.552Z,5.2
2023-02-03T00:26:28.521Z,2.5
2023-02-03T00:32:48.548Z,2.5
2023-02-03T00:39:11.620Z,1.6
2023-02-03T00:45:31.617Z,1.6
2023-02-03T00:51:54.529Z,2.8
2023-02-03T00:58:14.743Z,2.8
2023-02-03T01:04:37.630Z,2.5
2023-02-03T01:10:57.587Z,2.5
2023-02-03T01:17:20.608Z,2
2023-02-03T01:23:40.674Z,2
2023-02-03T01:30:03.507Z,2.3
2023-02-03T01:36:23.645Z,2.3
2023-02-03T01:42:46.597Z,1.6
2023-02-03T01:49:06.597Z,1.6
2023-02-03T01:55:29.608Z,2.1
2023-02-03T02:01:49.748Z,2.1
2023-02-03T02:08:12.696Z,1.5
2023-02-03T02:14:32.653Z,1.5
2023-02-03T02:20:55.629Z,0.7
2023-02-03T02:27:15.517Z,0.7
2023-02-03T02:33:38.594Z,2.4
2023-02-03T02:39:58.648Z,2.4
2023-02-03T02:46:21.488Z,1.6
2023-02-03T02:52:41.617Z,1.6
2023-02-03T02:59:04.503Z,1.3
2023-02-03T03:05:24.646Z,1.3
2023-02-03T03:11:47.812Z,2.2
2023-02-03T03:18:07.677Z,2.2
2023-02-03T03:24:30.607Z,2.4
2023-02-03T03:30:50.942Z,2.4
2023-02-03T03:37:13.534Z,2
2023-02-03T03:43:33.609Z,2
2023-02-03T03:49:56.628Z,1.6
2023-02-03T03:56:16.616Z,1.6
2023-02-03T04:02:39.688Z,1.7
2023-02-03T04:08:59.717Z,1.7
2023-02-03T04:15:22.653Z,1.2
2023-02-03T04:37:52.466Z,1.9
2023-02-03T04:44:12.562Z,1.9
2023-02-03T04:50:35.661Z,0.9
2023-02-03T04:56:55.626Z,0.9
2023-02-03T05:03:18.585Z,1.4
2023-02-03T05:09:38.560Z,1.4
2023-02-03T05:16:01.732Z,1.4
2023-02-03T05:22:21.527Z,1.4
2023-02-03T05:28:44.548Z,0.7
2023-02-03T05:35:04.621Z,0.7
2023-02-03T05:41:27.561Z,0.6
2023-02-03T05:47:47.548Z,0.6
2023-02-03T05:54:10.661Z,0.9
2023-02-03T06:00:30.534Z,0.9
2023-02-03T06:06:53.500Z,0.4
2023-02-03T06:13:13.605Z,0.4
2023-02-03T06:19:36.561Z,0.5
2023-02-03T06:25:56.557Z,0.5
2023-02-03T06:32:19.635Z,0.5
2023-02-03T06:38:39.573Z,0.5
2023-02-03T06:45:02.636Z,0.4
2023-02-03T06:51:22.547Z,0.4
2023-02-03T06:57:45.624Z,0.3
2023-02-03T07:04:05.546Z,0.3
2023-02-03T07:10:28.845Z,1
2023-02-03T07:16:48.612Z,1
2023-02-03T07:23:11.657Z,1.2
2023-02-03T07:29:31.719Z,1.2
2023-02-03T07:35:54.663Z,0.3
2023-02-03T07:42:14.584Z,0.3
2023-02-03T07:48:37.657Z,2.6
2023-02-03T07:54:57.622Z,2.6
2023-02-03T08:01:20.659Z,0.2
2023-02-03T08:07:40.584Z,0.2
2023-02-03T08:14:03.548Z,1.1
2023-02-03T08:20:23.601Z,1.1
2023-02-03T08:26:46.696Z,0.1
2023-02-03T08:33:06.629Z,0.1
2023-02-03T08:39:29.671Z,4.5
2023-02-03T08:45:49.682Z,4.5
2023-02-03T08:52:12.638Z,0.6
2023-02-03T08:58:32.505Z,0.6
2023-02-03T09:04:55.760Z,0.8
2023-02-03T09:11:15.658Z,0.8
2023-02-03T09:17:38.493Z,1.1
2023-02-03T09:23:58.591Z,1.1
2023-02-03T09:30:21.513Z,0.3
2023-02-03T09:53:10.437Z,1
2023-02-03T09:59:30.567Z,1
2023-02-03T10:05:53.526Z,0.7
2023-02-03T10:12:13.603Z,0.7
2023-02-03T10:18:36.628Z,0.5
2023-02-03T10:24:56.592Z,0.5
2023-02-03T10:31:19.806Z,1.5
2023-02-03T10:37:39.555Z,1.5
2023-02-03T10:44:02.805Z,1.1
2023-02-03T10:50:22.656Z,1.1
2023-02-03T10:56:45.598Z,0.3
2023-02-03T11:03:05.691Z,0.3
2023-02-03T11:09:28.698Z,0.4
2023-02-03T11:15:48.727Z,0.4
2023-02-03T11:22:11.608Z,1.1
2023-02-03T11:28:31.586Z,1.1
2023-02-03T11:34:54.671Z,1
2023-02-03T11:41:14.674Z,1
2023-02-03T11:47:38.092Z,2.3
2023-02-03T11:53:57.884Z,2.3
2023-02-03T12:00:20.670Z,1.3
2023-02-03T12:06:40.678Z,1.3
2023-02-03T12:13:03.562Z,1.1
2023-02-03T12:19:23.685Z,1.1
2023-02-03T12:25:46.640Z,1.4
2023-02-03T12:32:06.680Z,1.4
2023-02-03T12:38:29.537Z,2.8
2023-02-03T12:44:49.613Z,2.8
2023-02-03T12:51:12.653Z,3.6
2023-02-03T12:57:32.504Z,3.6
2023-02-03T13:03:55.631Z,0.7
2023-02-03T13:10:15.565Z,0.7
2023-02-03T13:16:38.599Z,4.3
2023-02-03T13:22:58.559Z,4.3
2023-02-03T13:29:21.529Z,2.3
2023-02-03T13:35:41.687Z,2.3
2023-02-03T13:42:04.594Z,2.9
2023-02-03T13:48:24.728Z,2.9
2023-02-03T13:54:47.594Z,4.6
2023-02-03T14:01:07.619Z,4.6
2023-02-03T14:07:30.585Z,5.7
2023-02-03T14:13:50.625Z,5.7
2023-02-03T14:20:13.719Z,7.8
2023-02-03T14:26:33.676Z,7.8
2023-02-03T14:32:56.598Z,6.6
2023-02-03T14:39:16.654Z,6.6
2023-02-03T14:54:50.527Z,10.6
2023-02-03T15:01:10.591Z,10.6
2023-02-03T15:07:33.574Z,9.3
2023-02-03T15:13:53.605Z,9.3
2023-02-03T15:20:16.524Z,6.3
2023-02-03T15:26:36.739Z,6.3
2023-02-03T15:32:59.917Z,5.4
2023-02-03T15:39:19.540Z,5.4
2023-02-03T15:45:42.532Z,6.4
2023-02-03T15:52:02.613Z,6.4
2023-02-03T15:58:25.568Z,6.1
2023-02-03T16:04:45.539Z,6.1
2023-02-03T16:11:08.613Z,4.5
2023-02-03T16:17:28.539Z,4.5
2023-02-03T16:23:51.518Z,7.8
2023-02-03T16:30:11.634Z,7.8
2023-02-03T16:36:34.525Z,4.7
2023-02-03T16:42:54.571Z,4.7
2023-02-03T16:49:17.581Z,5.9
2023-02-03T16:55:37.491Z,5.9
2023-02-03T17:02:00.695Z,5
2023-02-03T17:08:20.509Z,5
2023-02-03T17:14:43.511Z,3.1
2023-02-03T17:21:03.551Z,3.1
2023-02-03T17:27:26.542Z,3.6
2023-02-03T17:33:46.610Z,3.6
2023-02-03T17:56:09.559Z,5.7
2023-02-03T18:02:29.684Z,5.7
2023-02-03T18:08:52.512Z,5.7
2023-02-03T18:15:12.513Z,5.7
2023-02-03T18:21:36.487Z,1.2
2023-02-03T18:27:55.472Z,1.2
2023-02-03T18:34:18.497Z,0.1
2023-02-03T18:40:38.550Z,0.1
2023-02-03T18:47:01.552Z,0.6
2023-02-03T18:53:21.518Z,0.6
2023-02-03T18:59:44.534Z,2.2
2023-02-03T19:06:04.514Z,2.2
2023-02-03T19:12:27.572Z,3.8
2023-02-03T19:18:47.478Z,3.8
2023-02-03T19:25:10.516Z,2.2
2023-02-03T19:31:30.799Z,2.2
2023-02-03T19:37:53.499Z,5.7
2023-02-03T19:44:13.574Z,5.7
2023-02-03T19:50:36.538Z,11.9
2023-02-03T19:56:56.558Z,11.9
2023-02-03T20:03:19.620Z,4.2
2023-02-03T20:26:43.544Z,2.3
2023-02-03T20:33:03.502Z,2.3
2023-02-03T20:39:26.724Z,3.1
2023-02-03T20:45:46.530Z,3.1
2023-02-03T20:52:09.484Z,3.6
2023-02-03T20:58:29.559Z,3.6
2023-02-03T21:04:52.532Z,4.3
2023-02-03T21:11:12.545Z,4.3
2023-02-03T21:17:35.535Z,3.2
2023-02-03T21:23:55.625Z,3.2
2023-02-03T21:30:18.575Z,2.5
2023-02-03T21:36:38.689Z,2.5
2023-02-03T21:43:01.690Z,1.6
2023-02-03T21:49:21.513Z,1.6
2023-02-03T21:55:44.501Z,3.3
2023-02-03T22:02:04.605Z,3.3
2023-02-03T22:08:27.566Z,3.2
2023-02-03T22:14:47.565Z,3.2
2023-02-03T22:21:10.528Z,1.4
2023-02-03T22:27:30.576Z,1.4
2023-02-03T22:33:53.605Z,2.1
2023-02-03T22:40:13.562Z,2.1
2023-02-03T22:46:36.525Z,0.2
2023-02-03T22:52:56.576Z,0.2
2023-02-03T22:59:19.590Z,0.5
2023-02-03T23:22:16.500Z,4.7
2023-02-03T23:28:36.519Z,4.7
2023-02-03T23:34:59.479Z,4.7
2023-02-03T23:41:19.574Z,4.7
2023-02-03T23:47:42.550Z,1
2023-02-03T23:54:02.566Z,1
